Shekhupura, Pakistan
Current Conditions -  °F | °C
As of 1:59 PM on Thursday 23 Oct 2014 (Local Time) from OPLA Reporting Station
Clear Clear  
Wind Chill: 91°   Ceiling: Unl
Heat Index: 92°   Visibility: 4mi
Dew Point: 63°   Wind: 0mph
Humidity: 38%   Direction: NA
Pressure: 29.91"   Gusts: NA
Location:  31.72°N, 73.98°E
Report Text: OPLA 230859Z 00000KT 6000 NSC 33/17 Q1013 NOSIG
Loading
Personal Weather Stations






























Interactive Weather Map New forecast layout! Learn more

10-Day Weather Forecast

Advertisements
Track Severe Weather on mobile